Time;durP1;ratioP1;P1;durP2;ratioP2;P2;SDS_P1;SDS_P2;PMS_P1;PMS_P2;Temp;Humidity;BMP_temperature;BMP_pressure;BME280_temperature;BME280_humidity;BME280_pressure;Samples;Min_cycle;Max_cycle;Signal;HPM_P1;HPM_P2
2021/01/22 00:02:25;;;;;;;3.83;2.50;;;8.40;67.40;;;;;;5013822;28;20156;-66
2021/01/22 00:04:50;;;;;;;4.25;2.33;;;8.30;67.40;;;;;;5017252;28;20056;-67
2021/01/22 00:07:16;;;;;;;2.67;2.20;;;8.20;67.40;;;;;;5015488;28;20371;-67
2021/01/22 00:09:41;;;;;;;3.95;2.28;;;8.20;67.30;;;;;;5017101;28;20083;-67
2021/01/22 00:12:07;;;;;;;2.15;1.90;;;8.10;67.30;;;;;;5015271;28;20504;-67
2021/01/22 00:14:33;;;;;;;2.78;1.60;;;8.10;67.40;;;;;;5017789;28;20041;-66
2021/01/22 00:16:58;;;;;;;3.13;1.52;;;8.10;67.40;;;;;;5015553;28;20626;-66
2021/01/22 00:19:24;;;;;;;1.42;1.25;;;8.00;67.40;;;;;;5013798;28;20041;-67
2021/01/22 00:21:49;;;;;;;1.75;1.40;;;8.00;67.60;;;;;;5013811;28;20524;-66
2021/01/22 00:24:15;;;;;;;2.38;1.50;;;8.00;67.60;;;;;;5015874;28;20045;-66
2021/01/22 00:26:41;;;;;;;2.70;1.33;;;8.00;67.60;;;;;;5014744;28;20516;-67
2021/01/22 00:29:06;;;;;;;1.80;1.20;;;8.00;67.50;;;;;;5018188;28;20033;-67
2021/01/22 00:31:32;;;;;;;1.27;0.93;;;8.00;67.50;;;;;;5045466;28;20076;-67
2021/01/22 00:33:57;;;;;;;3.00;1.38;;;8.00;67.40;;;;;;5018686;28;20120;-66
2021/01/22 00:36:23;;;;;;;2.03;1.38;;;8.00;67.40;;;;;;4998670;28;20081;-66
2021/01/22 00:38:49;;;;;;;2.50;1.33;;;8.00;67.30;;;;;;5011919;28;20030;-67
2021/01/22 00:41:17;;;;;;;1.00;0.73;;;8.00;68.30;;;;;;5003059;28;20068;-65
2021/01/22 00:43:43;;;;;;;2.13;0.80;;;8.10;67.40;;;;;;5015246;28;20064;-66
2021/01/22 00:46:08;;;;;;;1.63;0.77;;;8.00;67.40;;;;;;5017840;28;20050;-68
2021/01/22 00:48:35;;;;;;;0.90;0.73;;;8.00;67.40;;;;;;5013398;28;20048;-66
2021/01/22 00:51:01;;;;;;;0.90;0.70;;;8.10;67.50;;;;;;5014599;28;20045;-67
2021/01/22 00:53:27;;;;;;;1.73;0.60;;;8.10;67.60;;;;;;5016316;28;20085;-66
2021/01/22 00:55:52;;;;;;;1.23;0.70;;;8.10;67.60;;;;;;5016354;28;20416;-66
2021/01/22 00:58:18;;;;;;;1.33;0.70;;;8.10;67.90;;;;;;5018753;28;20034;-66
2021/01/22 01:00:43;;;;;;;1.23;0.70;;;8.20;68.30;;;;;;5031654;28;20048;-66
2021/01/22 01:03:09;;;;;;;1.13;0.80;;;8.20;68.50;;;;;;5020412;28;20038;-67
2021/01/22 01:05:35;;;;;;;3.00;0.98;;;8.20;68.90;;;;;;5019004;28;20034;-66
2021/01/22 01:08:00;;;;;;;1.58;0.90;;;8.20;69.10;;;;;;5020035;28;20116;-67
2021/01/22 01:10:26;;;;;;;1.48;1.08;;;8.30;69.30;;;;;;5014336;28;20129;-67
2021/01/22 01:12:51;;;;;;;1.38;1.08;;;8.30;69.50;;;;;;5018927;28;20030;-67
2021/01/22 01:15:17;;;;;;;2.33;1.05;;;8.40;69.50;;;;;;5021499;28;20034;-66
2021/01/22 01:17:43;;;;;;;1.50;1.10;;;8.40;70.00;;;;;;5019963;28;20219;-66
2021/01/22 01:20:10;;;;;;;1.70;1.10;;;8.40;70.90;;;;;;5019286;28;20634;-65
2021/01/22 01:22:36;;;;;;;2.00;0.90;;;8.40;70.00;;;;;;5017160;28;20044;-67
2021/01/22 01:25:03;;;;;;;0.93;0.90;;;8.40;70.10;;;;;;5021609;28;20034;-65
2021/01/22 01:27:29;;;;;;;0.73;0.73;;;8.40;70.40;;;;;;5018085;28;20053;-66
2021/01/22 01:29:54;;;;;;;1.15;0.80;;;8.40;70.30;;;;;;5018977;28;20037;-67
2021/01/22 01:32:20;;;;;;;1.52;0.80;;;8.40;70.50;;;;;;5013728;28;20064;-67
2021/01/22 01:34:46;;;;;;;1.77;0.70;;;8.40;70.40;;;;;;5020544;28;20163;-67
2021/01/22 01:37:11;;;;;;;0.68;0.47;;;8.40;70.40;;;;;;5019139;28;20511;-65
2021/01/22 01:39:37;;;;;;;0.75;0.60;;;8.40;70.30;;;;;;5018148;28;20412;-66
2021/01/22 01:42:03;;;;;;;0.93;0.52;;;8.40;70.40;;;;;;5018140;28;20049;-66
2021/01/22 01:44:29;;;;;;;1.58;0.80;;;8.40;70.40;;;;;;5017494;28;20041;-66
2021/01/22 01:46:54;;;;;;;0.80;0.70;;;8.40;70.40;;;;;;5016776;28;20077;-64
2021/01/22 01:49:20;;;;;;;0.80;0.60;;;8.40;70.60;;;;;;5016880;28;20087;-65
2021/01/22 01:51:45;;;;;;;0.80;0.80;;;8.40;70.70;;;;;;5016001;28;20040;-65
2021/01/22 01:54:12;;;;;;;6.10;1.10;;;8.40;70.90;;;;;;5016993;28;20032;-66
2021/01/22 01:56:37;;;;;;;0.65;0.60;;;8.50;71.00;;;;;;5017279;28;20113;-65
2021/01/22 01:59:03;;;;;;;1.60;0.90;;;8.50;71.30;;;;;;5018937;28;20164;-67
2021/01/22 02:01:29;;;;;;;1.08;0.75;;;8.60;71.30;;;;;;5016578;28;20573;-66
2021/01/22 02:03:56;;;;;;;2.25;0.80;;;8.60;71.20;;;;;;5020349;28;20501;-66
2021/01/22 02:06:22;;;;;;;0.65;0.60;;;8.60;70.90;;;;;;5015924;28;20088;-65
2021/01/22 02:08:48;;;;;;;1.73;0.70;;;8.60;70.40;;;;;;5016990;28;20041;-66
2021/01/22 02:11:16;;;;;;;0.90;0.60;;;8.70;70.00;;;;;;5015518;28;20033;-64
2021/01/22 02:13:44;;;;;;;0.70;0.60;;;8.80;69.90;;;;;;5015426;28;20078;-66
2021/01/22 02:16:10;;;;;;;1.63;0.35;;;8.80;69.00;;;;;;5019906;28;20042;-66
2021/01/22 02:18:37;;;;;;;1.40;0.28;;;8.90;68.60;;;;;;5015226;28;20038;-64
2021/01/22 02:21:21;;;;;;;2.17;1.88;;;9.00;67.00;;;;;;5017673;28;20034;-66
2021/01/22 02:23:47;;;;;;;1.88;0.60;;;9.10;67.00;;;;;;5016562;28;20445;-65
2021/01/22 02:26:28;;;;;;;0.80;0.40;;;9.20;66.90;;;;;;5017677;28;20091;-66
2021/01/22 02:28:59;;;;;;;1.00;0.50;;;9.30;66.40;;;;;;5016329;28;20036;-66
2021/01/22 02:31:26;;;;;;;0.70;0.50;;;9.30;65.90;;;;;;5018787;28;20034;-66
2021/01/22 02:33:58;;;;;;;1.25;0.50;;;9.40;65.70;;;;;;5019296;28;20033;-66
2021/01/22 02:36:25;;;;;;;1.55;0.50;;;9.40;65.50;;;;;;5015023;28;20026;-66
2021/01/22 02:38:53;;;;;;;0.40;0.30;;;9.40;65.50;;;;;;5018132;28;20033;-64
2021/01/22 02:41:20;;;;;;;1.25;0.50;;;9.40;65.30;;;;;;5049080;28;20038;-65
2021/01/22 02:43:52;;;;;;;0.80;0.40;;;9.40;65.20;;;;;;5016097;28;20037;-64
2021/01/22 02:46:18;;;;;;;1.30;0.40;;;9.40;65.00;;;;;;5017252;28;20037;-66
2021/01/22 02:48:44;;;;;;;1.80;0.50;;;9.40;64.80;;;;;;5016961;28;20034;-65
2021/01/22 02:51:11;;;;;;;3.47;0.60;;;9.40;65.00;;;;;;5048224;28;20198;-65
2021/01/22 02:53:37;;;;;;;1.70;0.82;;;9.40;64.80;;;;;;5016721;28;20641;-65
2021/01/22 02:56:08;;;;;;;0.80;0.50;;;9.40;65.00;;;;;;5018014;28;20121;-65
2021/01/22 02:58:45;;;;;;;0.77;0.40;;;9.30;65.00;;;;;;5014120;28;20378;-65
2021/01/22 03:01:15;;;;;;;0.93;0.50;;;9.30;65.00;;;;;;5015603;28;20042;-65
2021/01/22 03:03:52;;;;;;;1.20;0.60;;;9.20;65.20;;;;;;5047125;28;20513;-65
2021/01/22 03:06:27;;;;;;;1.55;0.50;;;9.20;65.00;;;;;;5016706;28;20124;-65
2021/01/22 03:08:54;;;;;;;1.42;0.50;;;9.20;65.20;;;;;;5014072;28;20038;-65
2021/01/22 03:11:23;;;;;;;1.02;0.47;;;9.10;65.30;;;;;;5016257;28;20033;-66
2021/01/22 03:13:52;;;;;;;1.60;0.50;;;9.10;65.40;;;;;;5018299;28;20029;-65
2021/01/22 03:16:18;;;;;;;1.95;0.50;;;9.10;65.40;;;;;;5018614;28;20025;-65
2021/01/22 03:18:58;;;;;;;2.13;0.40;;;9.00;65.40;;;;;;5014166;28;20048;-64
2021/01/22 03:21:24;;;;;;;1.73;0.50;;;9.00;65.50;;;;;;5015029;28;20082;-65
2021/01/22 03:23:49;;;;;;;1.05;0.50;;;8.90;65.60;;;;;;5019252;28;20041;-64
2021/01/22 03:26:15;;;;;;;0.73;0.40;;;8.90;65.80;;;;;;5017012;28;20026;-65
2021/01/22 03:28:40;;;;;;;1.35;0.50;;;8.90;65.90;;;;;;5015220;28;20612;-65
2021/01/22 03:31:06;;;;;;;0.68;0.30;;;8.80;66.00;;;;;;5014346;28;20543;-65
2021/01/22 03:33:32;;;;;;;1.60;0.40;;;8.80;66.10;;;;;;5018562;28;20061;-65
2021/01/22 03:35:57;;;;;;;2.78;0.40;;;8.70;66.10;;;;;;5018167;28;20038;-65
2021/01/22 03:38:23;;;;;;;1.55;0.57;;;8.70;66.20;;;;;;5014641;28;20038;-65
2021/01/22 03:40:49;;;;;;;1.30;0.55;;;8.70;66.40;;;;;;5017236;28;20025;-65
2021/01/22 03:43:15;;;;;;;1.50;0.60;;;8.60;66.60;;;;;;5014500;28;20421;-65
2021/01/22 03:45:40;;;;;;;1.13;0.50;;;8.50;66.70;;;;;;5017075;28;20099;-65
2021/01/22 03:48:06;;;;;;;0.85;0.35;;;8.50;66.90;;;;;;5014283;28;20042;-64
2021/01/22 03:50:32;;;;;;;1.23;0.30;;;8.40;67.10;;;;;;5015204;28;20037;-64
2021/01/22 03:52:57;;;;;;;1.52;0.50;;;8.40;67.20;;;;;;5016261;28;20037;-65
2021/01/22 03:55:23;;;;;;;1.52;0.50;;;8.30;67.30;;;;;;5016153;28;20041;-66
2021/01/22 03:57:48;;;;;;;3.28;0.57;;;8.30;67.40;;;;;;5013919;28;20138;-65
2021/01/22 04:00:14;;;;;;;2.50;0.57;;;8.30;67.60;;;;;;5014152;28;20681;-63
2021/01/22 04:02:40;;;;;;;4.93;0.60;;;8.20;67.60;;;;;;5014273;28;20041;-66
2021/01/22 04:05:06;;;;;;;1.33;0.40;;;8.20;67.80;;;;;;5015908;28;20513;-63
2021/01/22 04:07:32;;;;;;;1.02;0.40;;;8.20;68.00;;;;;;5011916;28;20464;-66
2021/01/22 04:09:57;;;;;;;0.98;0.43;;;8.10;68.00;;;;;;5017555;28;20033;-66
2021/01/22 04:12:23;;;;;;;1.75;0.50;;;8.10;68.00;;;;;;5015838;28;20030;-65
2021/01/22 04:14:48;;;;;;;1.95;0.50;;;8.10;68.30;;;;;;5015101;28;20389;-66
2021/01/22 04:17:14;;;;;;;1.65;0.40;;;8.00;68.30;;;;;;5017478;28;20033;-65
2021/01/22 04:19:39;;;;;;;0.90;0.40;;;8.00;68.30;;;;;;5015301;28;20080;-66
2021/01/22 04:22:05;;;;;;;2.08;0.47;;;8.00;68.50;;;;;;5016071;28;20045;-66
2021/01/22 04:24:31;;;;;;;1.50;0.30;;;8.00;68.50;;;;;;5015696;28;20049;-66
2021/01/22 04:26:56;;;;;;;2.08;0.52;;;8.00;68.60;;;;;;5015257;28;20248;-66
2021/01/22 04:29:22;;;;;;;1.40;0.50;;;8.00;68.60;;;;;;5014338;28;20120;-65
2021/01/22 04:31:47;;;;;;;1.17;0.28;;;8.00;69.50;;;;;;5018067;28;20033;-65
2021/01/22 04:34:13;;;;;;;1.90;0.40;;;8.00;68.60;;;;;;5018911;28;20022;-66
2021/01/22 04:36:39;;;;;;;1.75;0.38;;;8.00;68.70;;;;;;5018073;28;20034;-65
2021/01/22 04:39:05;;;;;;;1.70;0.32;;;8.00;68.80;;;;;;5015875;28;20033;-66
2021/01/22 04:41:32;;;;;;;2.30;0.25;;;8.00;68.70;;;;;;5015119;28;20042;-66
2021/01/22 04:43:59;;;;;;;0.80;0.30;;;7.90;68.60;;;;;;5016288;28;20034;-66
2021/01/22 04:46:27;;;;;;;0.45;0.35;;;8.00;68.60;;;;;;5017044;28;20061;-64
2021/01/22 04:48:53;;;;;;;2.80;0.63;;;7.90;68.60;;;;;;5017064;28;20060;-66
2021/01/22 04:51:20;;;;;;;1.10;0.60;;;7.90;68.60;;;;;;5015745;28;20117;-66
2021/01/22 04:53:48;;;;;;;1.60;0.45;;;7.90;68.80;;;;;;5051221;28;20505;-66
2021/01/22 04:56:15;;;;;;;2.03;0.45;;;7.80;68.80;;;;;;5018300;28;20041;-66
2021/01/22 04:58:45;;;;;;;2.63;0.60;;;7.80;68.90;;;;;;5018654;28;20770;-66
2021/01/22 05:01:12;;;;;;;3.17;1.73;;;7.70;69.20;;;;;;5018313;28;20087;-65
2021/01/22 05:03:38;;;;;;;0.98;0.57;;;7.60;69.30;;;;;;5019478;28;20060;-67
2021/01/22 05:06:04;;;;;;;1.67;0.50;;;7.60;69.70;;;;;;5017506;28;20037;-66
2021/01/22 05:08:30;;;;;;;0.80;0.40;;;7.60;69.90;;;;;;5015955;28;20037;-66
2021/01/22 05:10:56;;;;;;;0.30;0.30;;;7.50;70.00;;;;;;5020172;28;20044;-67
2021/01/22 05:13:21;;;;;;;1.88;0.50;;;7.50;70.40;;;;;;5049591;28;20505;-66
2021/01/22 05:16:08;;;;;;;2.13;0.47;;;7.40;70.30;;;;;;5019394;28;20124;-65
2021/01/22 05:18:35;;;;;;;1.85;0.75;;;7.40;70.70;;;;;;5018363;28;20421;-66
2021/01/22 05:21:06;;;;;;;1.75;0.90;;;7.40;70.40;;;;;;5019271;28;20041;-65
2021/01/22 05:23:33;;;;;;;3.35;1.80;;;7.30;70.40;;;;;;5016508;28;20041;-66
2021/01/22 05:26:00;;;;;;;6.22;3.80;;;7.30;70.40;;;;;;5018961;28;20042;-66
2021/01/22 05:28:30;;;;;;;3.45;2.90;;;7.40;70.60;;;;;;5014763;28;20049;-66
2021/01/22 05:30:56;;;;;;;3.63;1.20;;;7.30;70.70;;;;;;5013799;28;20049;-65
2021/01/22 05:33:22;;;;;;;0.88;0.43;;;7.30;70.60;;;;;;5020635;28;20030;-65
2021/01/22 05:35:48;;;;;;;1.10;0.45;;;7.30;70.70;;;;;;5020138;28;20041;-66
2021/01/22 05:38:13;;;;;;;1.90;0.52;;;7.20;70.70;;;;;;5021155;28;20026;-66
2021/01/22 05:40:49;;;;;;;1.90;0.57;;;7.20;70.90;;;;;;5020273;28;20041;-66
2021/01/22 05:43:15;;;;;;;1.52;1.15;;;7.20;71.30;;;;;;5019914;28;20041;-66
2021/01/22 05:45:46;;;;;;;2.65;1.52;;;7.20;71.10;;;;;;5017458;28;20394;-66
2021/01/22 05:48:19;;;;;;;7.15;3.85;;;7.20;71.10;;;;;;5018971;28;20389;-66
2021/01/22 05:50:47;;;;;;;3.22;2.50;;;7.20;71.40;;;;;;5018546;28;20053;-66
2021/01/22 05:53:17;;;;;;;1.45;1.27;;;7.20;71.10;;;;;;5019699;28;20036;-66
2021/01/22 05:55:43;;;;;;;1.65;1.20;;;7.20;71.20;;;;;;5019604;28;20042;-65
2021/01/22 05:58:09;;;;;;;3.72;3.10;;;7.20;71.10;;;;;;5051563;28;20080;-66
2021/01/22 06:00:34;;;;;;;2.42;1.58;;;7.20;71.10;;;;;;5019494;28;20362;-66
2021/01/22 06:03:00;;;;;;;2.95;2.13;;;7.30;71.10;;;;;;5020729;28;20037;-66
2021/01/22 06:05:26;;;;;;;2.65;2.35;;;7.20;71.00;;;;;;5019625;28;20041;-66
2021/01/22 06:08:07;;;;;;;7.57;5.13;;;7.30;71.00;;;;;;5019718;28;20117;-65
2021/01/22 06:10:40;;;;;;;2.72;2.13;;;7.30;71.10;;;;;;5018505;28;20034;-66
2021/01/22 06:13:08;;;;;;;2.13;1.77;;;7.30;71.00;;;;;;5020226;28;20087;-66
2021/01/22 06:15:35;;;;;;;1.08;0.50;;;7.30;70.90;;;;;;5020265;28;20517;-66
2021/01/22 06:18:02;;;;;;;0.60;0.50;;;7.30;70.90;;;;;;5018925;28;20067;-66
2021/01/22 06:20:29;;;;;;;0.85;0.60;;;7.40;70.90;;;;;;5019048;28;20252;-66
2021/01/22 06:23:13;;;;;;;0.70;0.30;;;7.40;70.70;;;;;;5020616;28;20061;-65
2021/01/22 06:25:43;;;;;;;1.10;0.50;;;7.50;70.80;;;;;;5019339;28;20060;-65
2021/01/22 06:28:12;;;;;;;0.50;0.30;;;7.60;70.60;;;;;;5017085;28;20041;-65
2021/01/22 06:30:42;;;;;;;0.50;0.20;;;7.60;70.50;;;;;;5017787;28;20049;-66
2021/01/22 06:33:08;;;;;;;0.85;0.47;;;7.60;70.40;;;;;;5019814;28;20025;-66
2021/01/22 06:35:35;;;;;;;0.50;0.40;;;7.70;70.20;;;;;;5019695;28;20081;-66
2021/01/22 06:38:03;;;;;;;0.40;0.30;;;7.70;70.00;;;;;;5019796;28;20039;-66
2021/01/22 06:40:29;;;;;;;2.65;0.70;;;7.80;70.80;;;;;;5019380;28;20065;-65
2021/01/22 06:42:55;;;;;;;0.82;0.40;;;7.80;69.70;;;;;;5018298;28;20079;-67
2021/01/22 06:45:23;;;;;;;0.28;0.20;;;7.80;69.60;;;;;;5019042;28;20042;-66
2021/01/22 06:48:02;;;;;;;1.65;0.30;;;7.80;69.40;;;;;;5019685;28;20402;-66
2021/01/22 06:50:29;;;;;;;0.95;0.60;;;7.90;69.30;;;;;;5017985;28;20131;-65
2021/01/22 06:53:14;;;;;;;1.42;0.70;;;7.90;69.30;;;;;;5017481;28;20041;-65
2021/01/22 06:55:52;;;;;;;1.23;0.50;;;7.90;69.00;;;;;;5019829;28;20038;-66
2021/01/22 06:58:25;;;;;;;0.73;0.50;;;7.90;68.80;;;;;;5032122;28;20044;-66
2021/01/22 07:00:52;;;;;;;0.60;0.50;;;7.80;68.80;;;;;;5018065;28;20562;-66
2021/01/22 07:03:36;;;;;;;0.68;0.32;;;7.80;68.90;;;;;;5019513;28;20424;-66
2021/01/22 07:06:06;;;;;;;1.50;1.10;;;7.80;68.90;;;;;;5019311;28;20463;-66
2021/01/22 07:08:51;;;;;;;0.63;0.50;;;7.80;69.00;;;;;;5017825;28;20057;-66
2021/01/22 07:11:17;;;;;;;2.25;0.52;;;7.70;69.00;;;;;;5017442;28;20037;-65
2021/01/22 07:13:46;;;;;;;1.08;0.60;;;7.70;69.00;;;;;;5018831;28;20029;-66
2021/01/22 07:16:23;;;;;;;0.85;0.50;;;7.70;69.10;;;;;;5019061;28;20533;-66
2021/01/22 07:18:57;;;;;;;0.82;0.50;;;7.60;69.00;;;;;;5018342;28;20409;-65
2021/01/22 07:21:23;;;;;;;2.35;0.50;;;7.60;69.10;;;;;;5018615;28;20030;-66
2021/01/22 07:23:57;;;;;;;1.50;0.40;;;7.60;69.20;;;;;;5019353;28;20520;-65
2021/01/22 07:26:51;;;;;;;1.17;0.50;;;7.60;69.20;;;;;;5016592;28;20686;-66
2021/01/22 07:29:21;;;;;;;1.10;0.50;;;7.60;69.20;;;;;;5015901;28;20052;-65
2021/01/22 07:32:06;;;;;;;0.93;0.60;;;7.50;69.20;;;;;;5018382;28;20113;-67
2021/01/22 07:34:41;;;;;;;;;;;7.50;69.30;;;;;;5019536;28;20036;-66
2021/01/22 07:37:09;;;;;;;0.57;0.50;;;7.60;69.30;;;;;;5016873;28;19917;-66
2021/01/22 07:39:35;;;;;;;1.42;0.60;;;7.50;69.10;;;;;;5049832;28;20040;-66
2021/01/22 07:42:07;;;;;;;1.10;0.65;;;7.50;69.20;;;;;;5017081;28;20042;-66
2021/01/22 07:44:34;;;;;;;0.50;0.50;;;7.50;69.20;;;;;;5018309;28;20060;-66
2021/01/22 07:47:00;;;;;;;0.40;0.40;;;7.50;69.30;;;;;;5015662;28;20030;-66
2021/01/22 07:49:25;;;;;;;0.50;0.40;;;7.50;69.30;;;;;;5017731;28;20034;-67
2021/01/22 07:51:51;;;;;;;3.17;0.60;;;7.50;69.30;;;;;;5018095;28;20034;-66
2021/01/22 07:54:17;;;;;;;1.45;0.40;;;7.50;69.40;;;;;;5018609;28;20029;-66
2021/01/22 07:56:42;;;;;;;1.20;1.10;;;7.50;69.40;;;;;;5017452;28;20083;-66
2021/01/22 07:59:13;;;;;;;1.35;0.65;;;7.60;69.50;;;;;;5015316;28;20397;-66
2021/01/22 08:01:39;;;;;;;1.98;0.95;;;7.60;69.50;;;;;;5011910;28;20517;-66
2021/01/22 08:04:06;;;;;;;0.77;0.60;;;7.60;69.40;;;;;;5015651;28;20040;-65
2021/01/22 08:06:48;;;;;;;0.55;0.55;;;7.70;69.40;;;;;;5017597;28;20030;-66
2021/01/22 08:09:17;;;;;;;1.00;0.80;;;7.80;69.30;;;;;;5016518;28;20030;-66
2021/01/22 08:11:44;;;;;;;1.10;1.00;;;7.80;69.30;;;;;;5015591;28;20090;-66
2021/01/22 08:14:09;;;;;;;1.10;1.00;;;7.80;69.20;;;;;;5049438;28;20037;-66
2021/01/22 08:16:37;;;;;;;2.55;2.33;;;7.90;69.20;;;;;;5017021;28;20508;-66
2021/01/22 08:19:04;;;;;;;1.58;0.88;;;7.90;69.10;;;;;;5016064;28;20034;-66
2021/01/22 08:21:31;;;;;;;1.27;1.00;;;8.00;68.30;;;;;;5050064;28;20032;-66
2021/01/22 08:23:58;;;;;;;2.83;1.63;;;8.00;69.70;;;;;;5017837;28;20416;-66
2021/01/22 08:26:26;;;;;;;2.17;1.70;;;8.10;68.80;;;;;;5016840;28;20054;-66
2021/01/22 08:28:54;;;;;;;1.65;0.95;;;8.20;68.80;;;;;;5014160;28;20087;-66
2021/01/22 08:31:20;;;;;;;1.65;1.20;;;8.20;68.70;;;;;;5016357;28;20083;-66
2021/01/22 08:33:47;;;;;;;2.03;0.80;;;8.30;68.60;;;;;;5016146;28;20030;-66
2021/01/22 08:36:13;;;;;;;1.50;0.80;;;8.30;68.50;;;;;;5017579;28;20151;-64
2021/01/22 08:38:39;;;;;;;0.40;0.40;;;8.40;68.50;;;;;;5015881;28;20045;-66
2021/01/22 08:41:05;;;;;;;0.38;0.38;;;8.40;68.30;;;;;;5017133;28;20187;-66
2021/01/22 08:43:55;;;;;;;0.50;0.30;;;8.50;68.30;;;;;;5017317;28;20409;-66
2021/01/22 08:46:22;;;;;;;0.43;0.43;;;8.50;67.70;;;;;;5017979;28;20809;-65
2021/01/22 08:48:47;;;;;;;0.75;0.55;;;8.60;68.00;;;;;;5016109;28;20065;-67
2021/01/22 08:51:14;;;;;;;0.80;0.60;;;8.60;67.90;;;;;;5017326;28;20235;-66
2021/01/22 08:53:53;;;;;;;0.60;0.52;;;8.70;67.70;;;;;;5017786;28;20512;-66
2021/01/22 08:56:21;;;;;;;2.55;0.95;;;8.70;67.30;;;;;;5017670;28;20042;-67
2021/01/22 08:59:03;;;;;;;0.77;0.77;;;8.70;67.40;;;;;;5015380;28;20034;-66
2021/01/22 09:01:58;;;;;;;0.55;0.47;;;8.80;67.10;;;;;;5016173;28;20144;-67
2021/01/22 09:04:26;;;;;;;0.60;0.60;;;8.80;66.90;;;;;;5016903;28;20030;-66
2021/01/22 09:06:55;;;;;;;0.75;0.55;;;8.80;67.10;;;;;;5016635;28;20032;-66
2021/01/22 09:09:43;;;;;;;0.85;0.73;;;8.90;67.10;;;;;;5048220;28;20436;-66
2021/01/22 09:12:26;;;;;;;1.17;0.70;;;8.90;66.80;;;;;;5017839;28;20037;-66
2021/01/22 09:14:54;;;;;;;2.22;0.57;;;9.00;66.70;;;;;;5016503;28;20514;-66
2021/01/22 09:17:24;;;;;;;1.38;0.50;;;8.90;66.90;;;;;;5048234;28;20045;-66
2021/01/22 09:20:02;;;;;;;3.53;0.55;;;9.00;66.90;;;;;;5020250;28;20033;-66
2021/01/22 09:22:32;;;;;;;1.35;0.63;;;9.00;67.60;;;;;;5020001;28;20449;-66
2021/01/22 09:24:59;;;;;;;1.45;0.88;;;9.10;66.70;;;;;;5020660;28;20112;-67
2021/01/22 09:27:25;;;;;;;1.55;0.50;;;9.10;66.70;;;;;;5020406;28;20519;-66
2021/01/22 09:29:51;;;;;;;0.98;0.60;;;9.20;66.70;;;;;;5018284;28;20030;-66
2021/01/22 09:32:17;;;;;;;1.45;0.43;;;9.20;66.60;;;;;;5019313;28;20025;-66
2021/01/22 09:34:43;;;;;;;1.15;0.68;;;9.30;66.70;;;;;;5020067;28;20033;-66
2021/01/22 09:37:08;;;;;;;0.70;0.40;;;9.30;67.30;;;;;;5019432;28;20033;-66
2021/01/22 09:39:34;;;;;;;0.45;0.32;;;9.40;66.40;;;;;;5020536;28;20029;-66
2021/01/22 09:42:00;;;;;;;0.50;0.40;;;9.40;66.30;;;;;;5019524;28;20434;-66
2021/01/22 09:44:25;;;;;;;0.90;0.50;;;9.50;66.30;;;;;;5020568;28;20041;-67
2021/01/22 09:46:51;;;;;;;0.50;0.45;;;9.50;66.10;;;;;;5019352;28;20037;-66
2021/01/22 09:49:16;;;;;;;1.83;0.40;;;9.60;66.20;;;;;;5018471;28;20029;-66
2021/01/22 09:51:42;;;;;;;1.92;1.73;;;9.70;66.00;;;;;;5019468;28;20105;-66
2021/01/22 09:54:09;;;;;;;0.60;0.50;;;9.70;65.90;;;;;;5019827;28;20034;-67
2021/01/22 09:56:36;;;;;;;1.13;0.30;;;9.80;65.80;;;;;;5020577;28;20493;-66
2021/01/22 09:59:05;;;;;;;0.60;0.47;;;9.80;65.60;;;;;;5049566;28;20041;-66
2021/01/22 10:01:31;;;;;;;1.30;1.20;;;9.90;65.60;;;;;;5020101;28;20038;-66
2021/01/22 10:03:56;;;;;;;1.33;0.50;;;9.90;65.60;;;;;;5021287;28;20045;-66
2021/01/22 10:06:22;;;;;;;2.00;0.60;;;9.90;66.20;;;;;;5019573;28;20078;-66
2021/01/22 10:08:48;;;;;;;4.15;3.00;;;10.00;65.50;;;;;;5019203;28;20568;-66
2021/01/22 10:11:13;;;;;;;2.25;1.00;;;10.10;65.30;;;;;;5011485;28;20112;-67
2021/01/22 10:13:39;;;;;;;0.55;0.52;;;10.20;65.20;;;;;;5000119;28;20116;-66
2021/01/22 10:16:05;;;;;;;1.00;0.70;;;10.20;65.00;;;;;;5015015;28;20038;-67
2021/01/22 10:18:30;;;;;;;1.48;1.20;;;10.30;65.00;;;;;;5000577;28;20059;-67
2021/01/22 10:20:56;;;;;;;1.13;0.98;;;10.30;65.00;;;;;;4999511;28;20164;-66
2021/01/22 10:23:22;;;;;;;1.55;1.23;;;10.40;64.80;;;;;;4999622;28;20027;-65
2021/01/22 10:25:47;;;;;;;1.55;1.30;;;10.40;64.60;;;;;;4999455;28;20414;-67
2021/01/22 10:28:13;;;;;;;0.60;0.50;;;10.50;64.60;;;;;;4997615;28;20054;-67
2021/01/22 10:30:38;;;;;;;0.65;0.50;;;10.60;64.60;;;;;;4998163;28;20050;-67
2021/01/22 10:33:04;;;;;;;2.10;1.00;;;10.70;64.30;;;;;;4999488;28;20064;-66
2021/01/22 10:35:30;;;;;;;0.45;0.30;;;10.80;64.00;;;;;;5000809;28;20044;-67
2021/01/22 10:37:55;;;;;;;0.50;0.30;;;10.90;63.90;;;;;;4997829;28;20034;-66
2021/01/22 10:40:21;;;;;;;0.40;0.40;;;11.00;64.00;;;;;;4999012;28;20091;-67
2021/01/22 10:42:47;;;;;;;0.52;0.40;;;11.10;63.60;;;;;;4999301;28;20567;-67
2021/01/22 10:45:13;;;;;;;1.85;0.40;;;11.10;63.40;;;;;;5000022;28;20034;-67
2021/01/22 10:47:38;;;;;;;0.52;0.40;;;11.20;63.10;;;;;;4997624;28;20031;-67
2021/01/22 10:50:05;;;;;;;1.00;0.65;;;11.30;62.90;;;;;;4998481;28;20070;-67
2021/01/22 10:52:31;;;;;;;0.40;0.30;;;11.30;62.60;;;;;;4998579;28;20039;-66
2021/01/22 10:54:57;;;;;;;1.45;0.40;;;11.40;62.20;;;;;;5000336;28;20032;-67
2021/01/22 10:57:22;;;;;;;2.10;0.63;;;11.40;61.90;;;;;;4998946;28;20058;-66
2021/01/22 10:59:48;;;;;;;0.60;0.60;;;11.40;61.30;;;;;;4997433;28;20040;-66
2021/01/22 11:02:13;;;;;;;0.75;0.68;;;11.50;61.90;;;;;;4999486;28;20034;-66
2021/01/22 11:04:40;;;;;;;1.55;0.60;;;11.40;61.20;;;;;;4999271;28;20519;-67
2021/01/22 11:07:06;;;;;;;3.60;0.50;;;11.40;61.50;;;;;;4998807;28;20564;-67
2021/01/22 11:09:32;;;;;;;3.47;0.80;;;11.40;61.50;;;;;;4998863;28;20130;-66
2021/01/22 11:11:57;;;;;;;1.85;0.65;;;11.40;61.30;;;;;;4995492;28;20026;-65
2021/01/22 11:14:23;;;;;;;1.10;0.50;;;11.30;61.40;;;;;;5005209;28;20088;-67
2021/01/22 11:16:49;;;;;;;0.70;0.50;;;11.30;61.90;;;;;;5002029;28;20037;-66
2021/01/22 11:19:14;;;;;;;1.52;0.75;;;11.30;61.80;;;;;;5018011;28;20034;-67
2021/01/22 11:21:40;;;;;;;0.93;0.55;;;11.30;61.50;;;;;;5017275;28;20091;-67
2021/01/22 11:24:06;;;;;;;0.60;0.50;;;11.30;61.30;;;;;;5019582;28;20044;-66
2021/01/22 11:26:33;;;;;;;0.50;0.40;;;11.30;61.20;;;;;;5017193;28;20026;-66
2021/01/22 11:28:59;;;;;;;1.45;0.60;;;11.40;61.30;;;;;;5015090;28;20418;-66
2021/01/22 11:31:25;;;;;;;1.60;0.50;;;11.40;61.60;;;;;;5017040;28;20276;-67
2021/01/22 11:33:51;;;;;;;1.30;1.10;;;11.40;60.80;;;;;;5018559;28;20068;-66
2021/01/22 11:36:16;;;;;;;1.05;0.63;;;11.40;59.90;;;;;;5017544;28;20057;-66
2021/01/22 11:38:42;;;;;;;0.70;0.47;;;11.40;60.40;;;;;;5017243;28;20045;-66
2021/01/22 11:41:08;;;;;;;0.82;0.70;;;11.40;60.70;;;;;;5016029;28;20026;-66
2021/01/22 11:43:33;;;;;;;0.70;0.65;;;11.50;60.80;;;;;;5016923;28;20061;-66
2021/01/22 11:45:59;;;;;;;0.98;0.52;;;11.50;60.80;;;;;;5019432;28;20073;-66
2021/01/22 11:48:24;;;;;;;0.65;0.40;;;11.50;60.80;;;;;;5016721;28;20042;-66
2021/01/22 11:50:50;;;;;;;0.90;0.80;;;11.60;60.70;;;;;;5016841;28;20095;-66
2021/01/22 11:53:16;;;;;;;1.98;0.60;;;11.60;60.10;;;;;;5018062;28;20048;-66
2021/01/22 11:55:41;;;;;;;1.20;0.60;;;11.60;60.50;;;;;;5017356;28;20191;-66
2021/01/22 11:58:07;;;;;;;0.73;0.73;;;11.60;60.60;;;;;;5017267;28;20140;-66
2021/01/22 12:00:33;;;;;;;2.08;0.88;;;11.60;60.80;;;;;;5017319;28;20045;-66
2021/01/22 12:03:00;;;;;;;2.95;1.40;;;11.60;60.80;;;;;;5017281;28;20068;-66
2021/01/22 12:05:25;;;;;;;1.15;1.05;;;11.60;60.50;;;;;;5018124;28;20527;-67
2021/01/22 12:07:51;;;;;;;0.80;0.70;;;11.60;60.80;;;;;;5015937;28;20034;-67
2021/01/22 12:10:17;;;;;;;1.25;0.80;;;11.60;60.80;;;;;;5018068;28;20044;-66
2021/01/22 12:12:42;;;;;;;0.77;0.70;;;11.60;60.80;;;;;;5021098;28;20030;-67
2021/01/22 12:15:08;;;;;;;1.10;0.70;;;11.60;61.00;;;;;;5015910;28;20421;-66
2021/01/22 12:17:34;;;;;;;2.42;1.58;;;11.70;61.10;;;;;;5017346;28;20033;-67
2021/01/22 12:20:00;;;;;;;1.63;0.70;;;11.70;61.20;;;;;;5016995;28;20041;-66
2021/01/22 12:22:25;;;;;;;0.82;0.70;;;11.70;59.90;;;;;;5016864;28;20037;-66
2021/01/22 12:24:51;;;;;;;0.70;0.63;;;11.70;60.30;;;;;;5049718;28;20037;-66
2021/01/22 12:27:16;;;;;;;1.33;0.98;;;11.70;60.10;;;;;;5015828;28;20034;-66
2021/01/22 12:29:42;;;;;;;1.75;1.35;;;11.60;60.40;;;;;;5016482;28;20026;-66
2021/01/22 12:32:08;;;;;;;2.45;1.70;;;11.60;60.60;;;;;;5018173;28;20053;-66
2021/01/22 12:34:33;;;;;;;3.75;1.85;;;11.70;60.80;;;;;;5017481;28;20030;-66
2021/01/22 12:37:00;;;;;;;1.50;1.25;;;11.60;61.10;;;;;;5017584;28;20026;-66
2021/01/22 12:39:25;;;;;;;4.22;1.38;;;11.50;61.00;;;;;;5016890;28;20090;-66
2021/01/22 12:41:51;;;;;;;1.67;1.15;;;11.50;60.80;;;;;;5017370;28;20042;-66
2021/01/22 12:44:17;;;;;;;1.17;1.08;;;11.60;61.00;;;;;;5017248;28;20112;-66
2021/01/22 12:46:43;;;;;;;1.42;0.88;;;11.60;60.80;;;;;;5016544;28;20513;-66
2021/01/22 12:49:09;;;;;;;2.58;1.13;;;11.60;60.40;;;;;;5016851;28;20030;-67
2021/01/22 12:51:34;;;;;;;2.15;1.25;;;11.50;60.80;;;;;;5016201;28;20413;-66
2021/01/22 12:54:00;;;;;;;2.13;1.40;;;11.50;60.90;;;;;;5020501;28;20045;-66
2021/01/22 12:56:25;;;;;;;2.42;2.17;;;11.40;61.00;;;;;;5020395;28;20034;-66
2021/01/22 12:58:51;;;;;;;2.55;1.67;;;11.40;61.30;;;;;;5020060;28;20053;-66